sensor_id;sensor_type;location;lat;lon;timestamp;pressure;altitude;pressure_sealevel;temperature
63689;BMP280;54895;40.928;14.480;2024-01-25T04:55:31;102462.28;;;23.94
63689;BMP280;54895;40.928;14.480;2024-01-25T04:57:57;102457.81;;;23.79
63689;BMP280;54895;40.928;14.480;2024-01-25T05:00:24;102454.88;;;24.04
63689;BMP280;54895;40.928;14.480;2024-01-25T05:02:50;102460.66;;;24.08
63689;BMP280;54895;40.928;14.480;2024-01-25T05:05:16;102452.78;;;24.12
63689;BMP280;54895;40.928;14.480;2024-01-25T05:07:42;102445.66;;;24.26
63689;BMP280;54895;40.928;14.480;2024-01-25T05:10:09;102443.50;;;24.34
63689;BMP280;54895;40.928;14.480;2024-01-25T05:12:35;102444.00;;;24.04
63689;BMP280;54895;40.928;14.480;2024-01-25T05:15:01;102440.31;;;24.09
63689;BMP280;54895;40.928;14.480;2024-01-25T05:17:28;102442.63;;;24.22
63689;BMP280;54895;40.928;14.480;2024-01-25T05:19:54;102437.53;;;23.54
63689;BMP280;54895;40.928;14.480;2024-01-25T05:22:20;102442.94;;;23.28
63689;BMP280;54895;40.928;14.480;2024-01-25T05:24:47;102441.78;;;23.04
63689;BMP280;54895;40.928;14.480;2024-01-25T05:27:14;102442.25;;;22.93
63689;BMP280;54895;40.928;14.480;2024-01-25T05:29:40;102437.25;;;22.90
63689;BMP280;54895;40.928;14.480;2024-01-25T05:32:06;102441.63;;;22.85
63689;BMP280;54895;40.928;14.480;2024-01-25T05:34:33;102423.06;;;23.08
63689;BMP280;54895;40.928;14.480;2024-01-25T05:36:59;102422.63;;;23.55
63689;BMP280;54895;40.928;14.480;2024-01-25T05:39:25;102425.88;;;23.71
63689;BMP280;54895;40.928;14.480;2024-01-25T05:41:52;102433.25;;;23.61
63689;BMP280;54895;40.928;14.480;2024-01-25T05:44:18;102434.09;;;22.59
63689;BMP280;54895;40.928;14.480;2024-01-25T05:46:44;102430.13;;;22.77
63689;BMP280;54895;40.928;14.480;2024-01-25T05:49:10;102441.53;;;23.10
63689;BMP280;54895;40.928;14.480;2024-01-25T05:51:37;102432.91;;;23.47
63689;BMP280;54895;40.928;14.480;2024-01-25T05:55:26;102414.63;;;23.57
63689;BMP280;54895;40.928;14.480;2024-01-25T05:57:52;102417.88;;;23.46
63689;BMP280;54895;40.928;14.480;2024-01-25T06:00:18;102414.56;;;23.38
63689;BMP280;54895;40.928;14.480;2024-01-25T06:02:45;102414.84;;;23.42
63689;BMP280;54895;40.928;14.480;2024-01-25T06:05:11;102408.81;;;23.61
63689;BMP280;54895;40.928;14.480;2024-01-25T06:07:38;102409.97;;;23.67
63689;BMP280;54895;40.928;14.480;2024-01-25T06:10:04;102407.66;;;23.54
63689;BMP280;54895;40.928;14.480;2024-01-25T06:12:30;102423.59;;;23.24
63689;BMP280;54895;40.928;14.480;2024-01-25T06:14:57;102409.00;;;23.46
63689;BMP280;54895;40.928;14.480;2024-01-25T06:17:24;102412.00;;;23.40
63689;BMP280;54895;40.928;14.480;2024-01-25T06:19:50;102407.78;;;23.56
63689;BMP280;54895;40.928;14.480;2024-01-25T06:22:16;102402.03;;;23.52
63689;BMP280;54895;40.928;14.480;2024-01-25T06:28:55;102402.34;;;23.56
63689;BMP280;54895;40.928;14.480;2024-01-25T06:31:21;102395.38;;;23.63
63689;BMP280;54895;40.928;14.480;2024-01-25T06:33:47;102393.41;;;23.46
63689;BMP280;54895;40.928;14.480;2024-01-25T06:36:16;102399.56;;;23.20
63689;BMP280;54895;40.928;14.480;2024-01-25T06:38:43;102405.94;;;23.32
63689;BMP280;54895;40.928;14.480;2024-01-25T06:41:09;102408.59;;;23.23
63689;BMP280;54895;40.928;14.480;2024-01-25T06:43:36;102399.78;;;23.58
63689;BMP280;54895;40.928;14.480;2024-01-25T06:46:02;102409.53;;;22.91
63689;BMP280;54895;40.928;14.480;2024-01-25T06:48:28;102408.63;;;23.85
63689;BMP280;54895;40.928;14.480;2024-01-25T06:55:29;102416.69;;;24.02
63689;BMP280;54895;40.928;14.480;2024-01-25T06:58:20;102422.63;;;23.81
63689;BMP280;54895;40.928;14.480;2024-01-25T07:00:46;102437.00;;;24.01
63689;BMP280;54895;40.928;14.480;2024-01-25T07:03:13;102435.75;;;23.75
63689;BMP280;54895;40.928;14.480;2024-01-25T07:05:41;102426.72;;;24.18
63689;BMP280;54895;40.928;14.480;2024-01-25T07:08:07;102436.59;;;24.14
63689;BMP280;54895;40.928;14.480;2024-01-25T07:10:42;102444.47;;;24.00
63689;BMP280;54895;40.928;14.480;2024-01-25T07:13:08;102442.28;;;23.99
63689;BMP280;54895;40.928;14.480;2024-01-25T07:15:35;102441.50;;;24.25
63689;BMP280;54895;40.928;14.480;2024-01-25T07:18:01;102444.59;;;24.02
63689;BMP280;54895;40.928;14.480;2024-01-25T07:20:27;102431.97;;;23.35
63689;BMP280;54895;40.928;14.480;2024-01-25T07:22:54;102423.97;;;23.37
63689;BMP280;54895;40.928;14.480;2024-01-25T07:25:20;102441.00;;;23.11
63689;BMP280;54895;40.928;14.480;2024-01-25T07:27:47;102448.41;;;23.54
63689;BMP280;54895;40.928;14.480;2024-01-25T07:30:13;102442.75;;;22.99
63689;BMP280;54895;40.928;14.480;2024-01-25T07:32:40;102446.81;;;23.87
63689;BMP280;54895;40.928;14.480;2024-01-25T07:35:08;102439.34;;;24.42
63689;BMP280;54895;40.928;14.480;2024-01-25T07:37:39;102437.84;;;24.68
63689;BMP280;54895;40.928;14.480;2024-01-25T07:40:08;102437.94;;;24.41
63689;BMP280;54895;40.928;14.480;2024-01-25T07:42:35;102434.31;;;23.74
63689;BMP280;54895;40.928;14.480;2024-01-25T07:45:01;102443.53;;;23.88
63689;BMP280;54895;40.928;14.480;2024-01-25T07:47:28;102434.50;;;24.31
63689;BMP280;54895;40.928;14.480;2024-01-25T07:49:54;102444.06;;;24.13
63689;BMP280;54895;40.928;14.480;2024-01-25T07:56:13;102435.78;;;24.40
63689;BMP280;54895;40.928;14.480;2024-01-25T07:58:40;102445.25;;;24.86
63689;BMP280;54895;40.928;14.480;2024-01-25T08:01:07;102446.25;;;24.91
63689;BMP280;54895;40.928;14.480;2024-01-25T08:03:34;102447.72;;;24.82
63689;BMP280;54895;40.928;14.480;2024-01-25T08:06:02;102441.56;;;24.82
63689;BMP280;54895;40.928;14.480;2024-01-25T08:08:29;102452.72;;;24.95
63689;BMP280;54895;40.928;14.480;2024-01-25T08:10:55;102446.41;;;25.11
63689;BMP280;54895;40.928;14.480;2024-01-25T08:13:23;102444.94;;;25.10
63689;BMP280;54895;40.928;14.480;2024-01-25T08:15:51;102445.97;;;25.06
63689;BMP280;54895;40.928;14.480;2024-01-25T08:18:18;102450.31;;;24.71
63689;BMP280;54895;40.928;14.480;2024-01-25T08:20:49;102452.75;;;25.84
63689;BMP280;54895;40.928;14.480;2024-01-25T08:23:19;102451.13;;;25.91
63689;BMP280;54895;40.928;14.480;2024-01-25T08:25:46;102454.06;;;26.04
63689;BMP280;54895;40.928;14.480;2024-01-25T08:28:13;102451.28;;;25.83
63689;BMP280;54895;40.928;14.480;2024-01-25T08:30:40;102455.88;;;25.50
63689;BMP280;54895;40.928;14.480;2024-01-25T08:33:07;102449.03;;;25.40
63689;BMP280;54895;40.928;14.480;2024-01-25T08:35:34;102462.25;;;25.34
63689;BMP280;54895;40.928;14.480;2024-01-25T08:38:01;102458.06;;;25.42
63689;BMP280;54895;40.928;14.480;2024-01-25T08:40:29;102451.69;;;25.19
63689;BMP280;54895;40.928;14.480;2024-01-25T08:42:56;102454.34;;;25.47
63689;BMP280;54895;40.928;14.480;2024-01-25T08:45:23;102456.88;;;25.06
63689;BMP280;54895;40.928;14.480;2024-01-25T08:47:50;102450.25;;;25.18
63689;BMP280;54895;40.928;14.480;2024-01-25T08:50:18;102451.53;;;25.17
63689;BMP280;54895;40.928;14.480;2024-01-25T08:56:25;102465.13;;;25.26
63689;BMP280;54895;40.928;14.480;2024-01-25T08:58:51;102473.81;;;25.53
63689;BMP280;54895;40.928;14.480;2024-01-25T09:01:18;102473.88;;;25.25
63689;BMP280;54895;40.928;14.480;2024-01-25T09:03:44;102472.06;;;25.08
63689;BMP280;54895;40.928;14.480;2024-01-25T09:06:11;102470.97;;;25.51
63689;BMP280;54895;40.928;14.480;2024-01-25T09:08:37;102480.13;;;25.46
63689;BMP280;54895;40.928;14.480;2024-01-25T09:11:03;102479.78;;;23.91
63689;BMP280;54895;40.928;14.480;2024-01-25T09:13:30;102469.50;;;24.82
63689;BMP280;54895;40.928;14.480;2024-01-25T09:15:56;102456.88;;;25.64
63689;BMP280;54895;40.928;14.480;2024-01-25T09:18:22;102456.28;;;25.56
63689;BMP280;54895;40.928;14.480;2024-01-25T09:20:48;102458.00;;;24.36
63689;BMP280;54895;40.928;14.480;2024-01-25T09:23:15;102452.88;;;24.69
63689;BMP280;54895;40.928;14.480;2024-01-25T09:25:44;102449.69;;;25.59
63689;BMP280;54895;40.928;14.480;2024-01-25T09:28:10;102451.91;;;25.42
63689;BMP280;54895;40.928;14.480;2024-01-25T09:30:41;102447.50;;;25.27
63689;BMP280;54895;40.928;14.480;2024-01-25T09:33:07;102452.81;;;25.65
63689;BMP280;54895;40.928;14.480;2024-01-25T09:35:34;102459.72;;;25.97
63689;BMP280;54895;40.928;14.480;2024-01-25T09:38:00;102461.75;;;26.38
63689;BMP280;54895;40.928;14.480;2024-01-25T09:40:26;102459.63;;;26.69
63689;BMP280;54895;40.928;14.480;2024-01-25T09:42:53;102458.25;;;27.02
63689;BMP280;54895;40.928;14.480;2024-01-25T09:45:20;102455.63;;;26.93
63689;BMP280;54895;40.928;14.480;2024-01-25T09:47:47;102452.31;;;26.50
63689;BMP280;54895;40.928;14.480;2024-01-25T09:50:14;102451.34;;;26.90
63689;BMP280;54895;40.928;14.480;2024-01-25T09:56:31;102452.72;;;27.12
63689;BMP280;54895;40.928;14.480;2024-01-25T09:58:59;102450.25;;;27.39
63689;BMP280;54895;40.928;14.480;2024-01-25T10:01:26;102443.09;;;27.34
63689;BMP280;54895;40.928;14.480;2024-01-25T10:03:53;102443.53;;;26.96
63689;BMP280;54895;40.928;14.480;2024-01-25T10:06:23;102430.47;;;26.94
63689;BMP280;54895;40.928;14.480;2024-01-25T10:08:52;102428.28;;;26.70
63689;BMP280;54895;40.928;14.480;2024-01-25T10:11:18;102420.94;;;26.95
63689;BMP280;54895;40.928;14.480;2024-01-25T10:13:47;102417.06;;;26.98
63689;BMP280;54895;40.928;14.480;2024-01-25T10:16:16;102415.53;;;27.18
63689;BMP280;54895;40.928;14.480;2024-01-25T10:18:45;102419.56;;;27.17
63689;BMP280;54895;40.928;14.480;2024-01-25T10:21:16;102418.50;;;27.11
63689;BMP280;54895;40.928;14.480;2024-01-25T10:23:44;102408.63;;;27.06
63689;BMP280;54895;40.928;14.480;2024-01-25T10:26:15;102410.63;;;26.94
63689;BMP280;54895;40.928;14.480;2024-01-25T10:28:49;102398.53;;;27.65
63689;BMP280;54895;40.928;14.480;2024-01-25T10:31:16;102394.25;;;27.17
63689;BMP280;54895;40.928;14.480;2024-01-25T10:33:43;102393.19;;;27.33
63689;BMP280;54895;40.928;14.480;2024-01-25T10:36:11;102376.19;;;27.35
63689;BMP280;54895;40.928;14.480;2024-01-25T10:38:39;102380.31;;;27.58
63689;BMP280;54895;40.928;14.480;2024-01-25T10:41:07;102385.44;;;27.52
63689;BMP280;54895;40.928;14.480;2024-01-25T10:43:34;102383.91;;;27.97
63689;BMP280;54895;40.928;14.480;2024-01-25T10:46:00;102387.16;;;27.82
63689;BMP280;54895;40.928;14.480;2024-01-25T10:48:28;102381.66;;;27.00
63689;BMP280;54895;40.928;14.480;2024-01-25T10:50:59;102385.31;;;26.82
63689;BMP280;54895;40.928;14.480;2024-01-25T10:56:42;102382.94;;;26.23
63689;BMP280;54895;40.928;14.480;2024-01-25T10:59:13;102376.28;;;27.02
63689;BMP280;54895;40.928;14.480;2024-01-25T11:01:45;102369.19;;;27.32
63689;BMP280;54895;40.928;14.480;2024-01-25T11:04:15;102363.69;;;27.54
63689;BMP280;54895;40.928;14.480;2024-01-25T11:06:45;102354.56;;;27.86
63689;BMP280;54895;40.928;14.480;2024-01-25T11:09:19;102364.31;;;27.89
63689;BMP280;54895;40.928;14.480;2024-01-25T11:11:47;102371.16;;;27.54
63689;BMP280;54895;40.928;14.480;2024-01-25T11:14:15;102364.28;;;27.53
63689;BMP280;54895;40.928;14.480;2024-01-25T11:16:43;102355.38;;;27.41
63689;BMP280;54895;40.928;14.480;2024-01-25T11:19:21;102359.59;;;26.64
63689;BMP280;54895;40.928;14.480;2024-01-25T11:21:49;102349.50;;;26.55
63689;BMP280;54895;40.928;14.480;2024-01-25T11:24:23;102345.63;;;27.27
63689;BMP280;54895;40.928;14.480;2024-01-25T11:26:54;102341.22;;;27.56
63689;BMP280;54895;40.928;14.480;2024-01-25T11:29:21;102336.91;;;27.64
63689;BMP280;54895;40.928;14.480;2024-01-25T11:31:53;102335.94;;;27.71
63689;BMP280;54895;40.928;14.480;2024-01-25T11:34:19;102340.25;;;27.51
63689;BMP280;54895;40.928;14.480;2024-01-25T11:36:46;102332.28;;;27.55
63689;BMP280;54895;40.928;14.480;2024-01-25T11:39:13;102335.38;;;27.61
63689;BMP280;54895;40.928;14.480;2024-01-25T11:41:42;102328.19;;;27.09
63689;BMP280;54895;40.928;14.480;2024-01-25T11:44:09;102320.78;;;25.38
63689;BMP280;54895;40.928;14.480;2024-01-25T11:46:36;102302.06;;;25.23
63689;BMP280;54895;40.928;14.480;2024-01-25T11:49:03;102298.59;;;25.95
63689;BMP280;54895;40.928;14.480;2024-01-25T11:51:29;102304.91;;;25.76
63689;BMP280;54895;40.928;14.480;2024-01-25T11:53:56;102305.28;;;25.40
63689;BMP280;54895;40.928;14.480;2024-01-25T11:56:31;102296.34;;;25.70
63689;BMP280;54895;40.928;14.480;2024-01-25T11:58:59;102312.19;;;25.62
63689;BMP280;54895;40.928;14.480;2024-01-25T12:01:26;102308.63;;;25.81
63689;BMP280;54895;40.928;14.480;2024-01-25T12:03:53;102292.59;;;25.24
63689;BMP280;54895;40.928;14.480;2024-01-25T12:06:20;102302.00;;;25.11
63689;BMP280;54895;40.928;14.480;2024-01-25T12:08:46;102298.41;;;25.39
63689;BMP280;54895;40.928;14.480;2024-01-25T12:11:14;102284.47;;;25.66
63689;BMP280;54895;40.928;14.480;2024-01-25T12:13:41;102284.00;;;25.69
63689;BMP280;54895;40.928;14.480;2024-01-25T12:16:09;102271.78;;;25.49
63689;BMP280;54895;40.928;14.480;2024-01-25T12:18:37;102269.53;;;25.67
63689;BMP280;54895;40.928;14.480;2024-01-25T12:21:04;102263.31;;;26.08
63689;BMP280;54895;40.928;14.480;2024-01-25T12:23:36;102256.41;;;25.96
63689;BMP280;54895;40.928;14.480;2024-01-25T12:26:07;102263.69;;;26.58
63689;BMP280;54895;40.928;14.480;2024-01-25T12:28:34;102258.69;;;26.89
63689;BMP280;54895;40.928;14.480;2024-01-25T12:31:05;102251.81;;;26.88
63689;BMP280;54895;40.928;14.480;2024-01-25T12:33:33;102253.44;;;27.16
63689;BMP280;54895;40.928;14.480;2024-01-25T12:35:59;102250.44;;;27.35
63689;BMP280;54895;40.928;14.480;2024-01-25T12:38:26;102246.78;;;27.19
63689;BMP280;54895;40.928;14.480;2024-01-25T12:40:53;102243.75;;;27.38
63689;BMP280;54895;40.928;14.480;2024-01-25T12:43:20;102243.84;;;27.40
63689;BMP280;54895;40.928;14.480;2024-01-25T12:45:49;102241.47;;;27.45
63689;BMP280;54895;40.928;14.480;2024-01-25T12:48:15;102238.53;;;27.66
63689;BMP280;54895;40.928;14.480;2024-01-25T12:50:42;102256.25;;;27.90
63689;BMP280;54895;40.928;14.480;2024-01-25T12:56:30;102258.44;;;26.50
63689;BMP280;54895;40.928;14.480;2024-01-25T12:58:56;102258.72;;;26.22
63689;BMP280;54895;40.928;14.480;2024-01-25T13:01:22;102251.53;;;26.84
63689;BMP280;54895;40.928;14.480;2024-01-25T13:03:49;102259.50;;;26.80
63689;BMP280;54895;40.928;14.480;2024-01-25T13:06:15;102260.47;;;26.73
63689;BMP280;54895;40.928;14.480;2024-01-25T13:08:42;102262.09;;;26.32
63689;BMP280;54895;40.928;14.480;2024-01-25T13:11:08;102263.94;;;26.18
63689;BMP280;54895;40.928;14.480;2024-01-25T13:13:35;102264.78;;;25.67
63689;BMP280;54895;40.928;14.480;2024-01-25T13:16:01;102260.53;;;26.29
63689;BMP280;54895;40.928;14.480;2024-01-25T13:18:28;102258.88;;;26.47
63689;BMP280;54895;40.928;14.480;2024-01-25T13:20:54;102259.13;;;26.97
63689;BMP280;54895;40.928;14.480;2024-01-25T13:23:22;102258.91;;;26.70
63689;BMP280;54895;40.928;14.480;2024-01-25T13:25:48;102262.50;;;26.61
63689;BMP280;54895;40.928;14.480;2024-01-25T13:28:15;102263.19;;;26.73
63689;BMP280;54895;40.928;14.480;2024-01-25T13:30:41;102276.44;;;26.44
63689;BMP280;54895;40.928;14.480;2024-01-25T13:33:07;102273.84;;;26.02
63689;BMP280;54895;40.928;14.480;2024-01-25T13:35:34;102273.66;;;26.88
63689;BMP280;54895;40.928;14.480;2024-01-25T13:38:03;102266.28;;;27.02
63689;BMP280;54895;40.928;14.480;2024-01-25T13:40:29;102257.81;;;26.52
63689;BMP280;54895;40.928;14.480;2024-01-25T13:42:56;102274.00;;;26.48
63689;BMP280;54895;40.928;14.480;2024-01-25T13:45:22;102268.88;;;26.77
63689;BMP280;54895;40.928;14.480;2024-01-25T13:47:49;102273.78;;;26.23
63689;BMP280;54895;40.928;14.480;2024-01-25T13:50:15;102282.66;;;27.02
63689;BMP280;54895;40.928;14.480;2024-01-25T13:56:48;102280.34;;;27.80
63689;BMP280;54895;40.928;14.480;2024-01-25T13:59:15;102275.06;;;27.12
63689;BMP280;54895;40.928;14.480;2024-01-25T14:01:41;102278.75;;;26.82
63689;BMP280;54895;40.928;14.480;2024-01-25T14:04:07;102276.47;;;27.13
63689;BMP280;54895;40.928;14.480;2024-01-25T14:06:33;102279.94;;;27.13
63689;BMP280;54895;40.928;14.480;2024-01-25T14:09:00;102280.06;;;26.58
63689;BMP280;54895;40.928;14.480;2024-01-25T14:11:26;102285.03;;;26.96
63689;BMP280;54895;40.928;14.480;2024-01-25T14:13:52;102277.44;;;27.06
63689;BMP280;54895;40.928;14.480;2024-01-25T14:16:19;102267.97;;;26.72
63689;BMP280;54895;40.928;14.480;2024-01-25T14:18:45;102276.59;;;26.57
63689;BMP280;54895;40.928;14.480;2024-01-25T14:21:11;102257.22;;;27.11
63689;BMP280;54895;40.928;14.480;2024-01-25T14:23:38;102261.75;;;26.49
63689;BMP280;54895;40.928;14.480;2024-01-25T14:26:04;102269.59;;;26.66
63689;BMP280;54895;40.928;14.480;2024-01-25T14:28:31;102278.38;;;26.53
63689;BMP280;54895;40.928;14.480;2024-01-25T14:30:57;102277.31;;;26.46
63689;BMP280;54895;40.928;14.480;2024-01-25T14:33:23;102270.53;;;26.59
63689;BMP280;54895;40.928;14.480;2024-01-25T14:35:50;102271.50;;;26.86
63689;BMP280;54895;40.928;14.480;2024-01-25T14:38:16;102271.66;;;27.47
63689;BMP280;54895;40.928;14.480;2024-01-25T14:40:42;102275.19;;;27.61
63689;BMP280;54895;40.928;14.480;2024-01-25T14:43:08;102278.63;;;27.62
63689;BMP280;54895;40.928;14.480;2024-01-25T14:45:34;102278.97;;;27.68
63689;BMP280;54895;40.928;14.480;2024-01-25T14:48:03;102278.03;;;28.13
63689;BMP280;54895;40.928;14.480;2024-01-25T14:50:29;102278.47;;;28.21
63689;BMP280;54895;40.928;14.480;2024-01-25T14:56:44;102268.28;;;27.60
63689;BMP280;54895;40.928;14.480;2024-01-25T14:59:10;102269.56;;;27.35
63689;BMP280;54895;40.928;14.480;2024-01-25T15:01:37;102276.00;;;27.05
63689;BMP280;54895;40.928;14.480;2024-01-25T15:04:04;102276.38;;;27.58
63689;BMP280;54895;40.928;14.480;2024-01-25T15:06:30;102268.88;;;27.00
63689;BMP280;54895;40.928;14.480;2024-01-25T15:08:56;102276.84;;;27.19
63689;BMP280;54895;40.928;14.480;2024-01-25T15:11:23;102284.63;;;27.36
63689;BMP280;54895;40.928;14.480;2024-01-25T15:13:49;102285.53;;;27.88
63689;BMP280;54895;40.928;14.480;2024-01-25T15:16:16;102292.44;;;27.89
63689;BMP280;54895;40.928;14.480;2024-01-25T15:18:43;102279.81;;;27.95
63689;BMP280;54895;40.928;14.480;2024-01-25T15:21:09;102283.00;;;28.17
63689;BMP280;54895;40.928;14.480;2024-01-25T15:23:36;102282.16;;;28.39
63689;BMP280;54895;40.928;14.480;2024-01-25T15:26:03;102285.09;;;28.43
63689;BMP280;54895;40.928;14.480;2024-01-25T15:28:30;102276.84;;;28.16
63689;BMP280;54895;40.928;14.480;2024-01-25T15:30:57;102282.25;;;28.41
63689;BMP280;54895;40.928;14.480;2024-01-25T15:33:24;102276.47;;;27.97
63689;BMP280;54895;40.928;14.480;2024-01-25T15:35:50;102285.41;;;28.11
63689;BMP280;54895;40.928;14.480;2024-01-25T15:38:17;102285.03;;;28.16
63689;BMP280;54895;40.928;14.480;2024-01-25T15:40:45;102289.47;;;28.48
63689;BMP280;54895;40.928;14.480;2024-01-25T15:43:11;102294.13;;;29.13
63689;BMP280;54895;40.928;14.480;2024-01-25T15:45:38;102299.03;;;28.87
63689;BMP280;54895;40.928;14.480;2024-01-25T15:48:04;102292.88;;;29.43
63689;BMP280;54895;40.928;14.480;2024-01-25T15:50:31;102280.31;;;29.38
63689;BMP280;54895;40.928;14.480;2024-01-25T15:57:01;102283.81;;;28.71
63689;BMP280;54895;40.928;14.480;2024-01-25T15:59:28;102293.88;;;28.28
63689;BMP280;54895;40.928;14.480;2024-01-25T16:01:54;102295.09;;;27.75
63689;BMP280;54895;40.928;14.480;2024-01-25T16:04:20;102292.66;;;27.09
63689;BMP280;54895;40.928;14.480;2024-01-25T16:06:46;102300.72;;;27.18
63689;BMP280;54895;40.928;14.480;2024-01-25T16:09:12;102292.41;;;26.93
63689;BMP280;54895;40.928;14.480;2024-01-25T16:11:39;102304.84;;;27.78
63689;BMP280;54895;40.928;14.480;2024-01-25T16:14:05;102287.84;;;27.43
63689;BMP280;54895;40.928;14.480;2024-01-25T16:16:31;102292.97;;;27.38
63689;BMP280;54895;40.928;14.480;2024-01-25T16:18:58;102288.06;;;26.33
63689;BMP280;54895;40.928;14.480;2024-01-25T16:21:24;102296.66;;;26.07
63689;BMP280;54895;40.928;14.480;2024-01-25T16:23:50;102300.25;;;25.88
63689;BMP280;54895;40.928;14.480;2024-01-25T16:26:16;102298.53;;;26.36
63689;BMP280;54895;40.928;14.480;2024-01-25T16:28:42;102296.34;;;26.79
63689;BMP280;54895;40.928;14.480;2024-01-25T16:31:09;102300.47;;;26.57
63689;BMP280;54895;40.928;14.480;2024-01-25T16:33:35;102289.09;;;26.60
63689;BMP280;54895;40.928;14.480;2024-01-25T16:36:01;102293.31;;;25.55
63689;BMP280;54895;40.928;14.480;2024-01-25T16:38:28;102292.88;;;25.49
63689;BMP280;54895;40.928;14.480;2024-01-25T16:40:54;102295.44;;;25.35
63689;BMP280;54895;40.928;14.480;2024-01-25T16:43:23;102291.44;;;25.27
63689;BMP280;54895;40.928;14.480;2024-01-25T16:45:49;102287.75;;;25.43
63689;BMP280;54895;40.928;14.480;2024-01-25T16:48:16;102289.44;;;25.27
63689;BMP280;54895;40.928;14.480;2024-01-25T16:50:42;102290.78;;;25.47
63689;BMP280;54895;40.928;14.480;2024-01-25T16:56:58;102305.47;;;25.03
63689;BMP280;54895;40.928;14.480;2024-01-25T16:59:25;102309.13;;;25.16
63689;BMP280;54895;40.928;14.480;2024-01-25T17:01:52;102308.00;;;25.40
63689;BMP280;54895;40.928;14.480;2024-01-25T17:04:18;102317.78;;;25.85
63689;BMP280;54895;40.928;14.480;2024-01-25T17:06:45;102320.91;;;25.09
63689;BMP280;54895;40.928;14.480;2024-01-25T17:09:12;102320.97;;;25.30
63689;BMP280;54895;40.928;14.480;2024-01-25T17:11:42;102326.50;;;25.11
63689;BMP280;54895;40.928;14.480;2024-01-25T17:14:11;102332.53;;;25.01
63689;BMP280;54895;40.928;14.480;2024-01-25T17:16:37;102335.88;;;25.29
63689;BMP280;54895;40.928;14.480;2024-01-25T17:19:04;102336.59;;;24.90
63689;BMP280;54895;40.928;14.480;2024-01-25T17:21:31;102338.03;;;24.91
63689;BMP280;54895;40.928;14.480;2024-01-25T17:23:58;102335.19;;;24.80
63689;BMP280;54895;40.928;14.480;2024-01-25T17:26:24;102347.72;;;25.43
63689;BMP280;54895;40.928;14.480;2024-01-25T17:28:51;102349.06;;;24.84
63689;BMP280;54895;40.928;14.480;2024-01-25T17:31:18;102344.91;;;24.83
63689;BMP280;54895;40.928;14.480;2024-01-25T17:33:45;102345.25;;;24.49
63689;BMP280;54895;40.928;14.480;2024-01-25T17:36:13;102345.91;;;25.67
63689;BMP280;54895;40.928;14.480;2024-01-25T17:38:39;102347.31;;;25.68
63689;BMP280;54895;40.928;14.480;2024-01-25T17:41:09;102351.56;;;25.19
63689;BMP280;54895;40.928;14.480;2024-01-25T17:43:35;102360.00;;;25.23
63689;BMP280;54895;40.928;14.480;2024-01-25T17:46:02;102364.00;;;25.32
63689;BMP280;54895;40.928;14.480;2024-01-25T17:48:29;102365.09;;;25.69
63689;BMP280;54895;40.928;14.480;2024-01-25T17:50:55;102373.97;;;25.48
63689;BMP280;54895;40.928;14.480;2024-01-25T17:57:10;102383.56;;;25.19
63689;BMP280;54895;40.928;14.480;2024-01-25T17:59:37;102392.22;;;25.36
63689;BMP280;54895;40.928;14.480;2024-01-25T18:02:03;102399.25;;;25.39
63689;BMP280;54895;40.928;14.480;2024-01-25T18:04:33;102403.13;;;25.36
63689;BMP280;54895;40.928;14.480;2024-01-25T18:07:00;102400.97;;;24.29
63689;BMP280;54895;40.928;14.480;2024-01-25T18:09:26;102405.25;;;24.98
63689;BMP280;54895;40.928;14.480;2024-01-25T18:11:53;102398.78;;;25.12
63689;BMP280;54895;40.928;14.480;2024-01-25T18:14:19;102387.63;;;24.90
63689;BMP280;54895;40.928;14.480;2024-01-25T18:16:45;102393.13;;;24.52
63689;BMP280;54895;40.928;14.480;2024-01-25T18:19:12;102403.44;;;24.53
63689;BMP280;54895;40.928;14.480;2024-01-25T18:21:44;102405.84;;;25.36
63689;BMP280;54895;40.928;14.480;2024-01-25T18:24:13;102397.00;;;25.87
63689;BMP280;54895;40.928;14.480;2024-01-25T18:26:40;102401.16;;;26.30
63689;BMP280;54895;40.928;14.480;2024-01-25T18:29:06;102404.91;;;26.46
63689;BMP280;54895;40.928;14.480;2024-01-25T18:31:32;102397.41;;;26.79
63689;BMP280;54895;40.928;14.480;2024-01-25T18:33:59;102390.03;;;26.70
63689;BMP280;54895;40.928;14.480;2024-01-25T18:36:25;102394.94;;;27.06
63689;BMP280;54895;40.928;14.480;2024-01-25T18:38:51;102401.50;;;27.01
63689;BMP280;54895;40.928;14.480;2024-01-25T18:41:18;102412.94;;;27.32
63689;BMP280;54895;40.928;14.480;2024-01-25T18:43:44;102413.19;;;26.36
63689;BMP280;54895;40.928;14.480;2024-01-25T18:46:10;102404.28;;;26.80
63689;BMP280;54895;40.928;14.480;2024-01-25T18:48:37;102401.25;;;26.53
63689;BMP280;54895;40.928;14.480;2024-01-25T18:51:04;102404.16;;;25.92
63689;BMP280;54895;40.928;14.480;2024-01-25T18:57:26;102395.09;;;24.99
63689;BMP280;54895;40.928;14.480;2024-01-25T18:59:52;102394.63;;;25.11
63689;BMP280;54895;40.928;14.480;2024-01-25T19:02:19;102398.53;;;24.90
63689;BMP280;54895;40.928;14.480;2024-01-25T19:04:46;102392.47;;;25.01
63689;BMP280;54895;40.928;14.480;2024-01-25T19:07:15;102395.13;;;24.61
63689;BMP280;54895;40.928;14.480;2024-01-25T19:09:42;102396.84;;;24.37
63689;BMP280;54895;40.928;14.480;2024-01-25T19:12:10;102401.50;;;24.08
63689;BMP280;54895;40.928;14.480;2024-01-25T19:14:37;102395.34;;;24.08
63689;BMP280;54895;40.928;14.480;2024-01-25T19:17:04;102388.25;;;23.76
63689;BMP280;54895;40.928;14.480;2024-01-25T19:19:31;102379.69;;;23.44
63689;BMP280;54895;40.928;14.480;2024-01-25T19:21:57;102385.41;;;23.48
63689;BMP280;54895;40.928;14.480;2024-01-25T19:24:25;102383.69;;;23.79
63689;BMP280;54895;40.928;14.480;2024-01-25T19:26:52;102387.88;;;23.54
63689;BMP280;54895;40.928;14.480;2024-01-25T19:29:19;102379.75;;;23.54